map of OTBD home
OTBD - Airport
Location
City:  Doha, Qatar
Name:Doha International Airport
ICAO:OTBD

Details
Type:Airport (Aerodrome, Airfield)
Use:Public/Civil, Military, International (customs port of entry)
Latitude:2515'40"N (25.261125)
Longitude:5133'54"E (51.565056)
Datum:WGS 1984
Elevation:35 ft (11 m)
Variation:2.55E (WMM2015v2 magnetic declination)
0.05 annual change
Runways:1
Longest:15000 × 151 ft (4572 × 46 m), paved

Time
Time Zone:UTC+3
Local Time:

Weather
METAR:OTBD 041400Z AUTO 33011KT CAVOK 20/07 Q1020 NOSIG
TAF:OTBD 041103Z 0412/0518 34016KT 9000 NSC
TEMPO 0422/0507 28012KT

Related Locations
Nearby:
Farthest:GMR: 12011 mi / 19330 km
Mangareva [Totegegie], Gambier Islands, PF

Find:

   beyond  
but within

Other Information
Maps:
NOTAMs:
Links:
Sources:

  
  • flag of Qatar
  • flag of Qatar Air Force
  

Airport Diagram

Airport diagram for OTBD

Larger airport diagram (OBSOLETE) from NGA

Sectional Chart

Flight Planning
at skyvector.com

Satellite Image

Google Maps Satellite view

 

Copyright © 2004-2019 Karl L. Swartz. All rights reserved.
The Great Circle Mapper name and logo are trademarks of the Great Circle Mapper.
All other trademarks mentioned herein belong to their respective owners.
Please see credits for attibutions and further copyright information.

  Follow gcmap on Facebook Follow gcmap on Twitter GCmap on LinkedIn

hCard Microformat

Geo Microformat